Portada
METAR-TAF:

METAR-TAF

Aeroports :

Ghriss, Algèria

latitud: 35-12N, longitud: 000-08E, altitud: 514 m

Observació

L'informe es va fer fa 21 minuts, a les 10:00 UTC
Vent 9 kt del Oest/Sud-Oest
Temperatura 15°C
Humitat 48%
Pressió 1022 hPa
Visibilitat 10 km o més
sense núvols per sota de 1500 mi sense presència de cumulonimbus.

METAR: DAOV 261000Z 25009KT CAVOK 15/04 Q1022

Hora: 11:21 (10:21 UTC)

Pronòstic

L'informe es va fer fa 2 hores i 21 minuts, a les 08:00 UTC
Pronòstic vàlid del 26 a les 09 UTC al 26 a les 18 UTC
Vent 2 kt amb direcció variable
Visibilitat 10 km o més
sense núvols per sota de 1500 mi sense presència de cumulonimbus.
Evolucionant progressivament
l' 26 a les 10 UTC al 26 a les 13 UTC
Vent 14 kt del Nord-Oest

TAF: DAOV 260800Z 2609/2618 VRB02KT CAVOK BECMG 2610/2613 31014KT

Observacions i pronòstics meteorològics de més de 4000 aeroports (METAR i TAF).

Les estacions disponibles són els punts grocs i vermells al mapa.

Posi el ratolí al punt desitjat per veure el nom de l'estació.

Feu clic per veure les observacions i els pronòstics meteorològics.

Per canviar el mapa: feu clic els botons verds amb una creu de color negre per apropar; al botó verd amb un guió per allunyar la imatge; o en les fletxes verdes per a mapes adjacents.


METAR-TAF: